sensor_id;sensor_type;location;lat;lon;timestamp;P1;durP1;ratioP1;P2;durP2;ratioP2
2023;SDS011;1016;48.770;9.154;2022-09-19T00:01:30;15.83;;;0.57;;
2023;SDS011;1016;48.770;9.154;2022-09-19T00:04:01;16.07;;;0.50;;
2023;SDS011;1016;48.770;9.154;2022-09-19T00:06:35;16.20;;;0.60;;
2023;SDS011;1016;48.770;9.154;2022-09-19T00:09:01;16.07;;;0.60;;
2023;SDS011;1016;48.770;9.154;2022-09-19T00:11:28;15.87;;;0.57;;
2023;SDS011;1016;48.770;9.154;2022-09-19T00:13:54;16.20;;;0.97;;
2023;SDS011;1016;48.770;9.154;2022-09-19T00:16:30;15.80;;;0.50;;
2023;SDS011;1016;48.770;9.154;2022-09-19T00:18:58;16.20;;;0.60;;
2023;SDS011;1016;48.770;9.154;2022-09-19T00:21:26;15.93;;;0.50;;
2023;SDS011;1016;48.770;9.154;2022-09-19T00:23:53;16.43;;;0.60;;
2023;SDS011;1016;48.770;9.154;2022-09-19T00:26:38;16.13;;;0.60;;
2023;SDS011;1016;48.770;9.154;2022-09-19T00:29:04;15.93;;;0.70;;
2023;SDS011;1016;48.770;9.154;2022-09-19T00:31:31;16.30;;;0.60;;
2023;SDS011;1016;48.770;9.154;2022-09-19T00:33:57;16.60;;;0.60;;
2023;SDS011;1016;48.770;9.154;2022-09-19T00:36:23;15.90;;;0.50;;
2023;SDS011;1016;48.770;9.154;2022-09-19T00:38:49;15.80;;;0.50;;
2023;SDS011;1016;48.770;9.154;2022-09-19T00:41:19;15.90;;;0.60;;
2023;SDS011;1016;48.770;9.154;2022-09-19T00:43:55;16.03;;;0.60;;
2023;SDS011;1016;48.770;9.154;2022-09-19T00:46:41;15.97;;;0.60;;
2023;SDS011;1016;48.770;9.154;2022-09-19T00:49:08;16.33;;;0.60;;
2023;SDS011;1016;48.770;9.154;2022-09-19T00:51:39;15.83;;;0.50;;
2023;SDS011;1016;48.770;9.154;2022-09-19T00:54:14;16.03;;;0.60;;
2023;SDS011;1016;48.770;9.154;2022-09-19T00:56:45;15.97;;;0.53;;
2023;SDS011;1016;48.770;9.154;2022-09-19T00:59:14;15.97;;;0.53;;
2023;SDS011;1016;48.770;9.154;2022-09-19T01:01:40;16.37;;;0.60;;
2023;SDS011;1016;48.770;9.154;2022-09-19T01:04:14;17.43;;;0.70;;
2023;SDS011;1016;48.770;9.154;2022-09-19T01:06:45;16.13;;;0.70;;
2023;SDS011;1016;48.770;9.154;2022-09-19T01:12:29;15.87;;;0.50;;
2023;SDS011;1016;48.770;9.154;2022-09-19T01:15:21;16.47;;;0.60;;
2023;SDS011;1016;48.770;9.154;2022-09-19T01:17:52;16.03;;;0.60;;
2023;SDS011;1016;48.770;9.154;2022-09-19T01:20:30;15.93;;;0.50;;
2023;SDS011;1016;48.770;9.154;2022-09-19T01:23:24;16.30;;;0.60;;
2023;SDS011;1016;48.770;9.154;2022-09-19T01:28:34;16.37;;;0.70;;
2023;SDS011;1016;48.770;9.154;2022-09-19T01:33:54;16.17;;;0.60;;
2023;SDS011;1016;48.770;9.154;2022-09-19T01:36:27;16.43;;;0.87;;
2023;SDS011;1016;48.770;9.154;2022-09-19T01:38:57;16.07;;;0.60;;
2023;SDS011;1016;48.770;9.154;2022-09-19T01:41:25;16.90;;;1.00;;
2023;SDS011;1016;48.770;9.154;2022-09-19T01:43:50;16.80;;;0.70;;
2023;SDS011;1016;48.770;9.154;2022-09-19T01:46:20;17.57;;;0.80;;
2023;SDS011;1016;48.770;9.154;2022-09-19T01:48:53;16.67;;;0.90;;
2023;SDS011;1016;48.770;9.154;2022-09-19T01:51:25;17.80;;;0.70;;
2023;SDS011;1016;48.770;9.154;2022-09-19T01:54:13;16.50;;;0.90;;
2023;SDS011;1016;48.770;9.154;2022-09-19T02:02:27;16.03;;;0.80;;
2023;SDS011;1016;48.770;9.154;2022-09-19T02:10:47;16.70;;;0.83;;
2023;SDS011;1016;48.770;9.154;2022-09-19T02:13:21;16.97;;;0.80;;
2023;SDS011;1016;48.770;9.154;2022-09-19T02:15:57;16.23;;;0.70;;
2023;SDS011;1016;48.770;9.154;2022-09-19T02:18:42;16.67;;;0.90;;
2023;SDS011;1016;48.770;9.154;2022-09-19T02:21:20;16.50;;;0.80;;
2023;SDS011;1016;48.770;9.154;2022-09-19T02:23:51;16.70;;;0.83;;
2023;SDS011;1016;48.770;9.154;2022-09-19T02:26:20;17.40;;;0.90;;
2023;SDS011;1016;48.770;9.154;2022-09-19T02:28:48;18.70;;;0.90;;
2023;SDS011;1016;48.770;9.154;2022-09-19T02:31:19;16.30;;;0.60;;
2023;SDS011;1016;48.770;9.154;2022-09-19T02:33:48;17.17;;;0.83;;
2023;SDS011;1016;48.770;9.154;2022-09-19T02:36:21;17.50;;;0.90;;
2023;SDS011;1016;48.770;9.154;2022-09-19T02:39:06;16.70;;;0.80;;
2023;SDS011;1016;48.770;9.154;2022-09-19T02:42:06;18.10;;;1.10;;
2023;SDS011;1016;48.770;9.154;2022-09-19T02:44:43;17.27;;;1.00;;
2023;SDS011;1016;48.770;9.154;2022-09-19T02:48:00;17.50;;;0.90;;
2023;SDS011;1016;48.770;9.154;2022-09-19T02:50:15;17.63;;;1.10;;
2023;SDS011;1016;48.770;9.154;2022-09-19T02:53:01;17.50;;;1.00;;
2023;SDS011;1016;48.770;9.154;2022-09-19T02:55:30;18.70;;;0.90;;
2023;SDS011;1016;48.770;9.154;2022-09-19T02:58:04;17.50;;;0.90;;
2023;SDS011;1016;48.770;9.154;2022-09-19T03:00:31;16.97;;;0.97;;
2023;SDS011;1016;48.770;9.154;2022-09-19T03:03:08;17.50;;;0.77;;
2023;SDS011;1016;48.770;9.154;2022-09-19T03:06:02;16.90;;;0.83;;
2023;SDS011;1016;48.770;9.154;2022-09-19T03:08:30;17.97;;;0.93;;
2023;SDS011;1016;48.770;9.154;2022-09-19T03:11:01;17.37;;;0.90;;
2023;SDS011;1016;48.770;9.154;2022-09-19T03:13:33;17.07;;;1.10;;
2023;SDS011;1016;48.770;9.154;2022-09-19T03:16:03;18.20;;;1.00;;
2023;SDS011;1016;48.770;9.154;2022-09-19T03:18:33;18.40;;;1.03;;
2023;SDS011;1016;48.770;9.154;2022-09-19T03:21:01;17.60;;;1.00;;
2023;SDS011;1016;48.770;9.154;2022-09-19T03:23:50;18.80;;;1.03;;
2023;SDS011;1016;48.770;9.154;2022-09-19T03:26:18;19.00;;;1.17;;
2023;SDS011;1016;48.770;9.154;2022-09-19T03:28:45;18.00;;;0.90;;
2023;SDS011;1016;48.770;9.154;2022-09-19T03:31:11;21.77;;;1.20;;
2023;SDS011;1016;48.770;9.154;2022-09-19T03:33:37;17.00;;;0.90;;
2023;SDS011;1016;48.770;9.154;2022-09-19T03:36:04;17.33;;;0.90;;
2023;SDS011;1016;48.770;9.154;2022-09-19T03:38:34;18.97;;;1.30;;
2023;SDS011;1016;48.770;9.154;2022-09-19T03:41:00;17.40;;;1.13;;
2023;SDS011;1016;48.770;9.154;2022-09-19T03:43:26;17.80;;;1.00;;
2023;SDS011;1016;48.770;9.154;2022-09-19T03:45:53;19.30;;;1.27;;
2023;SDS011;1016;48.770;9.154;2022-09-19T03:48:18;20.13;;;1.10;;
2023;SDS011;1016;48.770;9.154;2022-09-19T03:50:46;18.80;;;1.40;;
2023;SDS011;1016;48.770;9.154;2022-09-19T03:53:12;18.50;;;1.20;;
2023;SDS011;1016;48.770;9.154;2022-09-19T03:55:38;19.00;;;1.23;;
2023;SDS011;1016;48.770;9.154;2022-09-19T03:58:06;18.13;;;1.00;;
2023;SDS011;1016;48.770;9.154;2022-09-19T04:00:32;20.00;;;1.10;;
2023;SDS011;1016;48.770;9.154;2022-09-19T04:02:58;18.00;;;1.23;;
2023;SDS011;1016;48.770;9.154;2022-09-19T04:05:23;20.40;;;1.37;;
2023;SDS011;1016;48.770;9.154;2022-09-19T04:07:49;19.20;;;1.00;;
2023;SDS011;1016;48.770;9.154;2022-09-19T04:10:15;21.07;;;1.40;;
2023;SDS011;1016;48.770;9.154;2022-09-19T04:12:41;18.20;;;1.30;;
2023;SDS011;1016;48.770;9.154;2022-09-19T04:15:06;18.77;;;1.20;;
2023;SDS011;1016;48.770;9.154;2022-09-19T04:17:33;20.70;;;1.20;;
2023;SDS011;1016;48.770;9.154;2022-09-19T04:19:58;18.40;;;1.37;;
2023;SDS011;1016;48.770;9.154;2022-09-19T04:22:24;18.40;;;1.30;;
2023;SDS011;1016;48.770;9.154;2022-09-19T04:24:50;20.53;;;1.20;;
2023;SDS011;1016;48.770;9.154;2022-09-19T04:27:17;19.53;;;1.57;;
2023;SDS011;1016;48.770;9.154;2022-09-19T04:29:43;20.67;;;1.10;;
2023;SDS011;1016;48.770;9.154;2022-09-19T04:32:09;18.63;;;1.10;;
2023;SDS011;1016;48.770;9.154;2022-09-19T04:34:35;20.50;;;1.30;;
2023;SDS011;1016;48.770;9.154;2022-09-19T04:37:01;18.27;;;1.10;;
2023;SDS011;1016;48.770;9.154;2022-09-19T04:39:31;21.53;;;1.37;;
2023;SDS011;1016;48.770;9.154;2022-09-19T04:41:56;18.70;;;1.90;;
2023;SDS011;1016;48.770;9.154;2022-09-19T04:44:23;18.87;;;1.30;;
2023;SDS011;1016;48.770;9.154;2022-09-19T04:46:53;18.27;;;1.10;;
2023;SDS011;1016;48.770;9.154;2022-09-19T04:49:19;18.53;;;1.10;;
2023;SDS011;1016;48.770;9.154;2022-09-19T04:51:44;20.50;;;1.23;;
2023;SDS011;1016;48.770;9.154;2022-09-19T04:54:10;21.90;;;1.60;;
2023;SDS011;1016;48.770;9.154;2022-09-19T04:56:37;21.27;;;1.50;;
2023;SDS011;1016;48.770;9.154;2022-09-19T04:59:03;22.20;;;2.00;;
2023;SDS011;1016;48.770;9.154;2022-09-19T05:01:29;19.30;;;1.53;;
2023;SDS011;1016;48.770;9.154;2022-09-19T05:03:55;22.07;;;1.83;;
2023;SDS011;1016;48.770;9.154;2022-09-19T05:06:21;19.10;;;1.70;;
2023;SDS011;1016;48.770;9.154;2022-09-19T05:08:47;18.83;;;1.73;;
2023;SDS011;1016;48.770;9.154;2022-09-19T05:11:15;17.67;;;1.40;;
2023;SDS011;1016;48.770;9.154;2022-09-19T05:13:43;20.47;;;1.53;;
2023;SDS011;1016;48.770;9.154;2022-09-19T05:16:09;21.97;;;1.50;;
2023;SDS011;1016;48.770;9.154;2022-09-19T05:18:36;19.30;;;1.33;;
2023;SDS011;1016;48.770;9.154;2022-09-19T05:21:03;21.70;;;1.80;;
2023;SDS011;1016;48.770;9.154;2022-09-19T05:23:30;21.10;;;1.63;;
2023;SDS011;1016;48.770;9.154;2022-09-19T05:26:01;19.33;;;1.33;;
2023;SDS011;1016;48.770;9.154;2022-09-19T05:28:28;19.60;;;1.50;;
2023;SDS011;1016;48.770;9.154;2022-09-19T05:30:53;21.43;;;1.83;;
2023;SDS011;1016;48.770;9.154;2022-09-19T05:33:21;20.10;;;1.80;;
2023;SDS011;1016;48.770;9.154;2022-09-19T05:35:58;20.47;;;1.90;;
2023;SDS011;1016;48.770;9.154;2022-09-19T05:38:26;22.27;;;1.70;;
2023;SDS011;1016;48.770;9.154;2022-09-19T05:40:56;21.10;;;1.50;;
2023;SDS011;1016;48.770;9.154;2022-09-19T05:43:23;19.80;;;1.40;;
2023;SDS011;1016;48.770;9.154;2022-09-19T05:45:50;20.97;;;1.50;;
2023;SDS011;1016;48.770;9.154;2022-09-19T05:48:17;22.10;;;1.73;;
2023;SDS011;1016;48.770;9.154;2022-09-19T05:50:43;21.60;;;1.80;;
2023;SDS011;1016;48.770;9.154;2022-09-19T05:53:09;19.23;;;1.43;;
2023;SDS011;1016;48.770;9.154;2022-09-19T05:55:54;19.03;;;1.60;;
2023;SDS011;1016;48.770;9.154;2022-09-19T05:58:20;21.63;;;3.40;;
2023;SDS011;1016;48.770;9.154;2022-09-19T06:00:46;19.60;;;1.97;;
2023;SDS011;1016;48.770;9.154;2022-09-19T06:03:12;22.53;;;2.00;;
2023;SDS011;1016;48.770;9.154;2022-09-19T06:05:42;20.37;;;1.87;;
2023;SDS011;1016;48.770;9.154;2022-09-19T06:08:10;20.30;;;1.90;;
2023;SDS011;1016;48.770;9.154;2022-09-19T06:10:37;21.07;;;1.83;;
2023;SDS011;1016;48.770;9.154;2022-09-19T06:13:05;22.57;;;1.77;;
2023;SDS011;1016;48.770;9.154;2022-09-19T06:15:31;22.23;;;1.90;;
2023;SDS011;1016;48.770;9.154;2022-09-19T06:17:58;20.83;;;1.63;;
2023;SDS011;1016;48.770;9.154;2022-09-19T06:20:24;20.80;;;1.60;;
2023;SDS011;1016;48.770;9.154;2022-09-19T06:22:54;21.93;;;2.50;;
2023;SDS011;1016;48.770;9.154;2022-09-19T06:25:25;22.23;;;3.13;;
2023;SDS011;1016;48.770;9.154;2022-09-19T06:27:55;20.90;;;1.77;;
2023;SDS011;1016;48.770;9.154;2022-09-19T06:30:22;19.70;;;1.73;;
2023;SDS011;1016;48.770;9.154;2022-09-19T06:32:49;19.00;;;1.87;;
2023;SDS011;1016;48.770;9.154;2022-09-19T06:35:19;21.23;;;2.03;;
2023;SDS011;1016;48.770;9.154;2022-09-19T06:37:46;20.87;;;1.80;;
2023;SDS011;1016;48.770;9.154;2022-09-19T06:40:13;18.87;;;1.93;;
2023;SDS011;1016;48.770;9.154;2022-09-19T06:42:39;23.30;;;2.47;;
2023;SDS011;1016;48.770;9.154;2022-09-19T06:45:05;19.60;;;1.97;;
2023;SDS011;1016;48.770;9.154;2022-09-19T06:47:32;19.20;;;1.63;;
2023;SDS011;1016;48.770;9.154;2022-09-19T06:50:00;20.83;;;1.70;;
2023;SDS011;1016;48.770;9.154;2022-09-19T06:52:26;24.27;;;2.20;;
2023;SDS011;1016;48.770;9.154;2022-09-19T06:54:52;19.93;;;1.90;;
2023;SDS011;1016;48.770;9.154;2022-09-19T06:57:18;22.67;;;2.30;;
2023;SDS011;1016;48.770;9.154;2022-09-19T06:59:44;20.90;;;2.20;;
2023;SDS011;1016;48.770;9.154;2022-09-19T07:02:09;19.30;;;2.03;;
2023;SDS011;1016;48.770;9.154;2022-09-19T07:04:36;21.77;;;2.33;;
2023;SDS011;1016;48.770;9.154;2022-09-19T07:07:01;22.10;;;2.30;;
2023;SDS011;1016;48.770;9.154;2022-09-19T07:09:28;23.10;;;2.40;;
2023;SDS011;1016;48.770;9.154;2022-09-19T07:11:54;21.53;;;2.60;;
2023;SDS011;1016;48.770;9.154;2022-09-19T07:14:21;21.63;;;2.37;;
2023;SDS011;1016;48.770;9.154;2022-09-19T07:16:50;22.30;;;2.33;;
2023;SDS011;1016;48.770;9.154;2022-09-19T07:19:15;21.70;;;2.53;;
2023;SDS011;1016;48.770;9.154;2022-09-19T07:21:42;20.00;;;2.40;;
2023;SDS011;1016;48.770;9.154;2022-09-19T07:24:08;22.07;;;2.40;;
2023;SDS011;1016;48.770;9.154;2022-09-19T07:26:33;19.73;;;2.20;;
2023;SDS011;1016;48.770;9.154;2022-09-19T07:28:59;18.90;;;1.90;;
2023;SDS011;1016;48.770;9.154;2022-09-19T07:31:28;20.20;;;1.90;;
2023;SDS011;1016;48.770;9.154;2022-09-19T07:33:53;25.27;;;2.50;;
2023;SDS011;1016;48.770;9.154;2022-09-19T07:36:20;22.70;;;2.17;;
2023;SDS011;1016;48.770;9.154;2022-09-19T07:38:47;22.90;;;3.17;;
2023;SDS011;1016;48.770;9.154;2022-09-19T07:41:14;20.70;;;1.90;;
2023;SDS011;1016;48.770;9.154;2022-09-19T07:43:40;21.17;;;2.17;;
2023;SDS011;1016;48.770;9.154;2022-09-19T07:46:05;25.27;;;2.30;;
2023;SDS011;1016;48.770;9.154;2022-09-19T07:48:31;23.40;;;2.53;;
2023;SDS011;1016;48.770;9.154;2022-09-19T07:50:57;21.50;;;2.10;;
2023;SDS011;1016;48.770;9.154;2022-09-19T07:53:22;22.77;;;2.27;;
2023;SDS011;1016;48.770;9.154;2022-09-19T07:55:49;21.10;;;2.30;;
2023;SDS011;1016;48.770;9.154;2022-09-19T07:58:20;24.20;;;2.63;;
2023;SDS011;1016;48.770;9.154;2022-09-19T08:00:47;23.60;;;2.40;;
2023;SDS011;1016;48.770;9.154;2022-09-19T08:03:15;23.73;;;2.10;;
2023;SDS011;1016;48.770;9.154;2022-09-19T08:05:43;25.70;;;2.50;;
2023;SDS011;1016;48.770;9.154;2022-09-19T08:08:11;21.83;;;2.57;;
2023;SDS011;1016;48.770;9.154;2022-09-19T08:10:38;23.30;;;2.60;;
2023;SDS011;1016;48.770;9.154;2022-09-19T08:13:05;22.83;;;2.90;;
2023;SDS011;1016;48.770;9.154;2022-09-19T08:15:32;20.90;;;2.43;;
2023;SDS011;1016;48.770;9.154;2022-09-19T08:18:02;20.87;;;3.33;;
2023;SDS011;1016;48.770;9.154;2022-09-19T08:20:30;21.40;;;2.63;;
2023;SDS011;1016;48.770;9.154;2022-09-19T08:22:59;21.73;;;2.90;;
2023;SDS011;1016;48.770;9.154;2022-09-19T08:25:26;21.70;;;2.53;;
2023;SDS011;1016;48.770;9.154;2022-09-19T08:27:53;23.07;;;2.43;;
2023;SDS011;1016;48.770;9.154;2022-09-19T08:30:20;23.17;;;3.20;;
2023;SDS011;1016;48.770;9.154;2022-09-19T08:32:47;24.40;;;3.00;;
2023;SDS011;1016;48.770;9.154;2022-09-19T08:35:14;19.70;;;2.53;;
2023;SDS011;1016;48.770;9.154;2022-09-19T08:37:41;23.80;;;2.20;;
2023;SDS011;1016;48.770;9.154;2022-09-19T08:40:12;20.60;;;2.27;;
2023;SDS011;1016;48.770;9.154;2022-09-19T08:45:35;22.73;;;2.63;;
2023;SDS011;1016;48.770;9.154;2022-09-19T08:48:23;22.23;;;3.37;;
2023;SDS011;1016;48.770;9.154;2022-09-19T08:50:59;22.10;;;2.63;;
2023;SDS011;1016;48.770;9.154;2022-09-19T08:53:33;24.50;;;2.90;;
2023;SDS011;1016;48.770;9.154;2022-09-19T08:56:02;23.73;;;3.60;;
2023;SDS011;1016;48.770;9.154;2022-09-19T08:58:29;23.33;;;3.43;;
2023;SDS011;1016;48.770;9.154;2022-09-19T09:00:59;20.87;;;2.63;;
2023;SDS011;1016;48.770;9.154;2022-09-19T09:04:16;23.37;;;2.70;;
2023;SDS011;1016;48.770;9.154;2022-09-19T09:15:04;22.60;;;2.20;;
2023;SDS011;1016;48.770;9.154;2022-09-19T09:20:18;30.03;;;3.40;;
2023;SDS011;1016;48.770;9.154;2022-09-19T09:26:05;24.90;;;2.60;;
2023;SDS011;1016;48.770;9.154;2022-09-19T09:31:38;26.10;;;2.53;;
2023;SDS011;1016;48.770;9.154;2022-09-19T09:37:15;27.53;;;3.10;;
2023;SDS011;1016;48.770;9.154;2022-09-19T09:39:46;25.57;;;2.90;;
2023;SDS011;1016;48.770;9.154;2022-09-19T09:43:10;21.90;;;2.63;;
2023;SDS011;1016;48.770;9.154;2022-09-19T09:45:35;22.87;;;2.70;;
2023;SDS011;1016;48.770;9.154;2022-09-19T09:48:16;20.83;;;2.93;;
2023;SDS011;1016;48.770;9.154;2022-09-19T09:53:47;24.67;;;3.13;;
2023;SDS011;1016;48.770;9.154;2022-09-19T09:56:28;20.27;;;2.80;;
2023;SDS011;1016;48.770;9.154;2022-09-19T09:59:11;22.23;;;2.73;;
2023;SDS011;1016;48.770;9.154;2022-09-19T10:05:32;22.40;;;2.60;;
2023;SDS011;1016;48.770;9.154;2022-09-19T10:08:21;20.90;;;3.20;;
2023;SDS011;1016;48.770;9.154;2022-09-19T10:13:56;21.80;;;3.60;;
2023;SDS011;1016;48.770;9.154;2022-09-19T10:16:33;23.03;;;2.43;;
2023;SDS011;1016;48.770;9.154;2022-09-19T10:19:00;20.30;;;2.37;;
2023;SDS011;1016;48.770;9.154;2022-09-19T10:21:50;22.60;;;3.50;;
2023;SDS011;1016;48.770;9.154;2022-09-19T10:27:16;25.47;;;2.80;;
2023;SDS011;1016;48.770;9.154;2022-09-19T10:32:46;20.47;;;2.50;;
2023;SDS011;1016;48.770;9.154;2022-09-19T10:35:32;22.27;;;2.60;;
2023;SDS011;1016;48.770;9.154;2022-09-19T10:38:09;21.80;;;2.37;;
2023;SDS011;1016;48.770;9.154;2022-09-19T10:43:21;22.40;;;2.80;;
2023;SDS011;1016;48.770;9.154;2022-09-19T10:45:55;20.60;;;2.00;;
2023;SDS011;1016;48.770;9.154;2022-09-19T10:48:32;19.60;;;2.10;;
2023;SDS011;1016;48.770;9.154;2022-09-19T10:50:59;18.47;;;1.80;;
2023;SDS011;1016;48.770;9.154;2022-09-19T10:53:34;19.40;;;2.00;;
2023;SDS011;1016;48.770;9.154;2022-09-19T10:56:04;18.90;;;2.00;;
2023;SDS011;1016;48.770;9.154;2022-09-19T10:58:47;21.47;;;2.03;;
2023;SDS011;1016;48.770;9.154;2022-09-19T11:01:23;24.50;;;2.47;;
2023;SDS011;1016;48.770;9.154;2022-09-19T11:04:00;21.87;;;1.80;;
2023;SDS011;1016;48.770;9.154;2022-09-19T11:07:02;20.07;;;1.93;;
2023;SDS011;1016;48.770;9.154;2022-09-19T11:09:39;19.60;;;1.93;;
2023;SDS011;1016;48.770;9.154;2022-09-19T11:12:16;19.27;;;1.67;;
2023;SDS011;1016;48.770;9.154;2022-09-19T11:14:43;18.93;;;2.80;;
2023;SDS011;1016;48.770;9.154;2022-09-19T11:23:12;19.53;;;1.77;;
2023;SDS011;1016;48.770;9.154;2022-09-19T11:28:59;20.20;;;1.90;;
2023;SDS011;1016;48.770;9.154;2022-09-19T11:34:34;19.67;;;1.97;;
2023;SDS011;1016;48.770;9.154;2022-09-19T11:40:19;21.47;;;2.20;;
2023;SDS011;1016;48.770;9.154;2022-09-19T11:48:23;18.77;;;1.63;;
2023;SDS011;1016;48.770;9.154;2022-09-19T11:53:48;20.50;;;2.50;;
2023;SDS011;1016;48.770;9.154;2022-09-19T11:56:43;19.40;;;2.87;;
2023;SDS011;1016;48.770;9.154;2022-09-19T12:05:11;19.50;;;1.97;;
2023;SDS011;1016;48.770;9.154;2022-09-19T12:08:01;21.00;;;2.17;;
2023;SDS011;1016;48.770;9.154;2022-09-19T12:10:53;19.40;;;2.50;;
2023;SDS011;1016;48.770;9.154;2022-09-19T12:13:31;21.93;;;3.00;;
2023;SDS011;1016;48.770;9.154;2022-09-19T12:16:10;21.87;;;2.20;;
2023;SDS011;1016;48.770;9.154;2022-09-19T12:18:45;20.83;;;2.00;;
2023;SDS011;1016;48.770;9.154;2022-09-19T12:21:21;19.70;;;2.70;;
2023;SDS011;1016;48.770;9.154;2022-09-19T12:23:55;20.93;;;2.20;;
2023;SDS011;1016;48.770;9.154;2022-09-19T12:27:00;19.40;;;1.70;;
2023;SDS011;1016;48.770;9.154;2022-09-19T12:29:55;19.90;;;2.53;;
2023;SDS011;1016;48.770;9.154;2022-09-19T12:32:35;20.63;;;1.90;;
2023;SDS011;1016;48.770;9.154;2022-09-19T12:41:20;18.53;;;1.80;;
2023;SDS011;1016;48.770;9.154;2022-09-19T12:46:36;19.80;;;1.90;;
2023;SDS011;1016;48.770;9.154;2022-09-19T12:49:22;18.67;;;1.63;;
2023;SDS011;1016;48.770;9.154;2022-09-19T12:52:02;20.40;;;1.93;;
2023;SDS011;1016;48.770;9.154;2022-09-19T12:57:23;18.00;;;1.83;;
2023;SDS011;1016;48.770;9.154;2022-09-19T13:00:11;20.10;;;2.63;;
2023;SDS011;1016;48.770;9.154;2022-09-19T13:05:22;18.10;;;1.70;;
2023;SDS011;1016;48.770;9.154;2022-09-19T13:08:20;19.50;;;1.50;;
2023;SDS011;1016;48.770;9.154;2022-09-19T13:10:48;20.10;;;1.80;;
2023;SDS011;1016;48.770;9.154;2022-09-19T13:15:59;19.17;;;2.20;;
2023;SDS011;1016;48.770;9.154;2022-09-19T13:18:42;19.47;;;2.10;;
2023;SDS011;1016;48.770;9.154;2022-09-19T13:21:44;22.43;;;3.23;;
2023;SDS011;1016;48.770;9.154;2022-09-19T13:27:08;20.30;;;2.10;;
2023;SDS011;1016;48.770;9.154;2022-09-19T13:32:01;19.17;;;3.20;;
2023;SDS011;1016;48.770;9.154;2022-09-19T13:42:27;24.13;;;2.03;;
2023;SDS011;1016;48.770;9.154;2022-09-19T13:44:59;19.57;;;2.00;;
2023;SDS011;1016;48.770;9.154;2022-09-19T13:47:31;18.90;;;2.10;;
2023;SDS011;1016;48.770;9.154;2022-09-19T13:53:01;18.77;;;1.60;;
2023;SDS011;1016;48.770;9.154;2022-09-19T13:55:35;19.00;;;2.00;;
2023;SDS011;1016;48.770;9.154;2022-09-19T14:01:07;18.63;;;1.87;;
2023;SDS011;1016;48.770;9.154;2022-09-19T14:03:42;19.00;;;1.70;;
2023;SDS011;1016;48.770;9.154;2022-09-19T14:11:44;21.53;;;2.17;;
2023;SDS011;1016;48.770;9.154;2022-09-19T14:17:13;20.90;;;2.20;;
2023;SDS011;1016;48.770;9.154;2022-09-19T14:19:52;21.33;;;1.90;;
2023;SDS011;1016;48.770;9.154;2022-09-19T14:25:22;20.23;;;2.73;;
2023;SDS011;1016;48.770;9.154;2022-09-19T14:30:45;19.03;;;1.80;;
2023;SDS011;1016;48.770;9.154;2022-09-19T14:45:14;19.30;;;2.00;;
2023;SDS011;1016;48.770;9.154;2022-09-19T14:47:46;19.67;;;2.00;;
2023;SDS011;1016;48.770;9.154;2022-09-19T14:50:24;18.60;;;2.20;;
2023;SDS011;1016;48.770;9.154;2022-09-19T14:55:41;18.50;;;2.20;;
2023;SDS011;1016;48.770;9.154;2022-09-19T14:58:24;18.20;;;1.70;;
2023;SDS011;1016;48.770;9.154;2022-09-19T15:00:55;18.47;;;1.50;;
2023;SDS011;1016;48.770;9.154;2022-09-19T15:03:23;20.20;;;2.63;;
2023;SDS011;1016;48.770;9.154;2022-09-19T15:05:48;19.10;;;1.90;;
2023;SDS011;1016;48.770;9.154;2022-09-19T15:08:23;18.70;;;1.60;;
2023;SDS011;1016;48.770;9.154;2022-09-19T15:11:02;18.07;;;1.67;;
2023;SDS011;1016;48.770;9.154;2022-09-19T15:13:30;18.90;;;2.37;;
2023;SDS011;1016;48.770;9.154;2022-09-19T15:16:01;19.40;;;2.10;;
2023;SDS011;1016;48.770;9.154;2022-09-19T15:18:34;18.70;;;2.13;;
2023;SDS011;1016;48.770;9.154;2022-09-19T15:21:07;19.17;;;2.30;;
2023;SDS011;1016;48.770;9.154;2022-09-19T15:23:37;19.23;;;2.90;;
2023;SDS011;1016;48.770;9.154;2022-09-19T15:26:07;18.50;;;2.03;;
2023;SDS011;1016;48.770;9.154;2022-09-19T15:28:37;19.93;;;2.10;;
2023;SDS011;1016;48.770;9.154;2022-09-19T15:31:12;19.57;;;2.40;;
2023;SDS011;1016;48.770;9.154;2022-09-19T15:33:44;18.87;;;2.67;;
2023;SDS011;1016;48.770;9.154;2022-09-19T15:36:12;17.80;;;2.23;;
2023;SDS011;1016;48.770;9.154;2022-09-19T15:38:42;18.50;;;2.37;;
2023;SDS011;1016;48.770;9.154;2022-09-19T15:41:08;19.40;;;1.83;;
2023;SDS011;1016;48.770;9.154;2022-09-19T15:43:43;17.90;;;1.90;;
2023;SDS011;1016;48.770;9.154;2022-09-19T15:49:00;17.93;;;1.77;;
2023;SDS011;1016;48.770;9.154;2022-09-19T15:51:34;16.77;;;1.70;;
2023;SDS011;1016;48.770;9.154;2022-09-19T15:54:04;18.90;;;3.17;;
2023;SDS011;1016;48.770;9.154;2022-09-19T15:56:42;18.60;;;2.10;;
2023;SDS011;1016;48.770;9.154;2022-09-19T15:59:18;18.10;;;1.63;;
2023;SDS011;1016;48.770;9.154;2022-09-19T16:01:46;17.70;;;1.40;;
2023;SDS011;1016;48.770;9.154;2022-09-19T16:04:17;18.73;;;1.60;;
2023;SDS011;1016;48.770;9.154;2022-09-19T16:14:45;18.03;;;2.00;;
2023;SDS011;1016;48.770;9.154;2022-09-19T16:17:14;18.93;;;1.90;;
2023;SDS011;1016;48.770;9.154;2022-09-19T16:19:45;17.80;;;1.80;;
2023;SDS011;1016;48.770;9.154;2022-09-19T16:22:12;20.63;;;2.07;;
2023;SDS011;1016;48.770;9.154;2022-09-19T16:24:47;21.50;;;1.87;;
2023;SDS011;1016;48.770;9.154;2022-09-19T16:27:35;19.50;;;2.07;;
2023;SDS011;1016;48.770;9.154;2022-09-19T16:30:01;18.60;;;1.73;;
2023;SDS011;1016;48.770;9.154;2022-09-19T16:32:28;18.10;;;1.93;;
2023;SDS011;1016;48.770;9.154;2022-09-19T16:34:56;18.97;;;2.57;;
2023;SDS011;1016;48.770;9.154;2022-09-19T16:37:28;18.57;;;2.60;;
2023;SDS011;1016;48.770;9.154;2022-09-19T16:40:21;19.00;;;2.47;;
2023;SDS011;1016;48.770;9.154;2022-09-19T16:42:50;18.00;;;2.37;;
2023;SDS011;1016;48.770;9.154;2022-09-19T16:47:46;18.17;;;1.80;;
2023;SDS011;1016;48.770;9.154;2022-09-19T16:50:13;17.90;;;1.80;;
2023;SDS011;1016;48.770;9.154;2022-09-19T16:52:45;18.77;;;2.00;;
2023;SDS011;1016;48.770;9.154;2022-09-19T16:55:20;18.90;;;3.33;;
2023;SDS011;1016;48.770;9.154;2022-09-19T16:57:48;19.63;;;2.40;;
2023;SDS011;1016;48.770;9.154;2022-09-19T17:00:15;17.20;;;2.00;;
2023;SDS011;1016;48.770;9.154;2022-09-19T17:02:41;17.90;;;1.80;;
2023;SDS011;1016;48.770;9.154;2022-09-19T17:05:11;19.37;;;1.97;;
2023;SDS011;1016;48.770;9.154;2022-09-19T17:07:41;17.33;;;1.60;;
2023;SDS011;1016;48.770;9.154;2022-09-19T17:10:07;17.73;;;2.07;;
2023;SDS011;1016;48.770;9.154;2022-09-19T17:12:35;18.63;;;2.10;;
2023;SDS011;1016;48.770;9.154;2022-09-19T17:15:01;17.97;;;2.33;;
2023;SDS011;1016;48.770;9.154;2022-09-19T17:17:26;18.20;;;2.30;;
2023;SDS011;1016;48.770;9.154;2022-09-19T17:19:52;16.90;;;2.00;;
2023;SDS011;1016;48.770;9.154;2022-09-19T17:22:18;18.40;;;2.20;;
2023;SDS011;1016;48.770;9.154;2022-09-19T17:24:44;17.40;;;2.00;;
2023;SDS011;1016;48.770;9.154;2022-09-19T17:27:10;17.77;;;1.60;;
2023;SDS011;1016;48.770;9.154;2022-09-19T17:29:37;17.87;;;2.40;;
2023;SDS011;1016;48.770;9.154;2022-09-19T17:32:03;17.50;;;1.80;;
2023;SDS011;1016;48.770;9.154;2022-09-19T17:34:31;17.93;;;2.30;;
2023;SDS011;1016;48.770;9.154;2022-09-19T17:36:57;16.90;;;1.93;;
2023;SDS011;1016;48.770;9.154;2022-09-19T17:39:22;17.63;;;2.13;;
2023;SDS011;1016;48.770;9.154;2022-09-19T17:41:48;17.87;;;2.10;;
2023;SDS011;1016;48.770;9.154;2022-09-19T17:44:14;18.03;;;2.13;;
2023;SDS011;1016;48.770;9.154;2022-09-19T17:46:40;18.00;;;2.47;;
2023;SDS011;1016;48.770;9.154;2022-09-19T17:49:06;18.90;;;2.80;;
2023;SDS011;1016;48.770;9.154;2022-09-19T17:51:32;17.83;;;2.43;;
2023;SDS011;1016;48.770;9.154;2022-09-19T17:53:57;20.27;;;3.50;;
2023;SDS011;1016;48.770;9.154;2022-09-19T17:56:24;17.93;;;2.90;;
2023;SDS011;1016;48.770;9.154;2022-09-19T17:58:54;20.53;;;2.70;;
2023;SDS011;1016;48.770;9.154;2022-09-19T18:01:21;19.00;;;2.27;;
2023;SDS011;1016;48.770;9.154;2022-09-19T18:04:07;17.50;;;2.20;;
2023;SDS011;1016;48.770;9.154;2022-09-19T18:06:34;20.40;;;3.63;;
2023;SDS011;1016;48.770;9.154;2022-09-19T18:09:01;18.10;;;2.87;;
2023;SDS011;1016;48.770;9.154;2022-09-19T18:11:27;19.50;;;3.30;;
2023;SDS011;1016;48.770;9.154;2022-09-19T18:13:53;19.50;;;3.17;;
2023;SDS011;1016;48.770;9.154;2022-09-19T18:16:19;19.97;;;3.50;;